Time,TemperatureF,DewpointF,PressureIn,WindDirection,WindDirectionDegrees,WindSpeedMPH,WindSpeedGustMPH,Humidity,HourlyPrecipIn,Conditions,Clouds,dailyrainin,SoftwareType,DateUTC
2013-01-14 00:02:00,50.8,48.0,29.80,SE,138,3.5,3.5,90,0.00,RA,,0.00,WeatherDisplay:10.37,2013-01-14 05:02:00,
2013-01-14 00:03:00,50.8,48.0,29.79,SSW,197,5.0,5.0,90,0.00,RA,,0.00,WeatherDisplay:10.37,2013-01-14 05:03:00,
2013-01-14 00:08:00,50.8,48.0,29.77,ESE,108,3.5,3.5,90,0.00,RA,,0.00,WeatherDisplay:10.37,2013-01-14 05:08:00,
2013-01-14 00:13:00,50.9,48.1,29.76,ESE,115,4.0,4.0,90,0.00,,,0.00,WeatherDisplay:10.37,2013-01-14 05:13:00,
2013-01-14 00:18:00,50.9,48.1,29.75,SE,127,3.5,3.5,90,0.00,,,0.00,WeatherDisplay:10.37,2013-01-14 05:18:00,
2013-01-14 00:23:00,50.9,48.1,29.76,ESE,104,5.0,5.0,90,0.00,,,0.00,WeatherDisplay:10.37,2013-01-14 05:23:00,
2013-01-14 00:28:00,50.8,48.0,29.76,SSW,204,3.5,3.5,90,0.00,,,0.00,WeatherDisplay:10.37,2013-01-14 05:28:00,
2013-01-14 00:33:00,50.8,48.0,29.75,SE,141,5.8,5.8,90,0.00,,,0.00,WeatherDisplay:10.37,2013-01-14 05:33:00,
2013-01-14 00:38:00,50.8,48.0,29.75,SSE,167,3.5,3.5,90,0.00,,,0.00,WeatherDisplay:10.37,2013-01-14 05:38:00,
2013-01-14 00:43:00,50.9,48.1,29.77,South,174,2.3,2.3,90,0.00,,,0.00,WeatherDisplay:10.37,2013-01-14 05:43:00,
2013-01-14 00:48:00,50.8,48.0,29.77,SSE,158,3.5,3.5,90,0.00,,,0.00,WeatherDisplay:10.37,2013-01-14 05:48:00,
2013-01-14 00:53:00,50.9,48.1,29.77,SSE,156,2.3,2.3,90,0.00,,,0.00,WeatherDisplay:10.37,2013-01-14 05:53:00,
2013-01-14 00:58:00,50.8,48.0,29.78,SSE,166,1.1,1.1,90,0.00,,,0.00,WeatherDisplay:10.37,2013-01-14 05:58:00,
2013-01-14 01:03:00,50.9,48.1,29.77,SE,131,3.5,3.5,90,0.00,,,0.00,WeatherDisplay:10.37,2013-01-14 06:03:00,
2013-01-14 01:08:00,51.1,48.3,29.77,SE,128,3.5,3.5,90,0.00,,,0.00,WeatherDisplay:10.37,2013-01-14 06:08:00,
2013-01-14 01:14:00,51.2,48.4,29.76,SSE,165,3.5,3.5,90,0.00,,,0.00,WeatherDisplay:10.37,2013-01-14 06:14:00,
2013-01-14 01:19:00,51.4,48.6,29.77,SE,131,4.6,4.6,90,0.00,,,0.00,WeatherDisplay:10.37,2013-01-14 06:19:00,
2013-01-14 01:24:00,51.5,48.7,29.78,South,177,3.5,3.5,90,0.00,,,0.00,WeatherDisplay:10.37,2013-01-14 06:24:00,
2013-01-14 01:29:00,51.6,48.8,29.77,South,190,2.3,2.3,90,0.00,,,0.00,WeatherDisplay:10.37,2013-01-14 06:29:00,
2013-01-14 01:34:00,51.7,48.6,29.78,SSE,157,6.9,6.9,89,0.00,,,0.00,WeatherDisplay:10.37,2013-01-14 06:34:00,
2013-01-14 01:39:00,51.8,48.7,29.76,SSE,157,3.5,3.5,89,0.00,,,0.00,WeatherDisplay:10.37,2013-01-14 06:39:00,
2013-01-14 01:44:00,51.8,48.7,29.78,SSE,160,3.5,3.5,89,0.00,,,0.00,WeatherDisplay:10.37,2013-01-14 06:44:00,
2013-01-14 01:49:00,51.7,48.6,29.78,SSE,167,4.6,4.6,89,0.00,,,0.00,WeatherDisplay:10.37,2013-01-14 06:49:00,
2013-01-14 01:54:00,51.8,48.7,29.77,SE,124,8.1,8.1,89,0.00,,,0.00,WeatherDisplay:10.37,2013-01-14 06:54:00,
2013-01-14 01:59:00,51.8,48.7,29.79,SE,127,3.5,3.5,89,0.00,,,0.00,WeatherDisplay:10.37,2013-01-14 06:59:00,
2013-01-14 02:04:00,51.8,48.7,29.78,ESE,105,3.5,3.5,89,0.00,,,0.00,WeatherDisplay:10.37,2013-01-14 07:04:00,
2013-01-14 02:09:00,51.8,48.7,29.79,SSW,203,2.3,2.3,89,0.00,,,0.00,WeatherDisplay:10.37,2013-01-14 07:09:00,
2013-01-14 02:14:00,51.7,48.6,29.79,SSE,161,2.3,2.3,89,0.00,,,0.00,WeatherDisplay:10.37,2013-01-14 07:14:00,
2013-01-14 02:19:00,51.7,48.6,29.79,SSW,195,3.5,3.5,89,0.00,,,0.00,WeatherDisplay:10.37,2013-01-14 07:19:00,
2013-01-14 02:24:00,51.8,48.7,29.79,SE,131,2.3,2.3,89,0.00,,,0.00,WeatherDisplay:10.37,2013-01-14 07:24:00,
2013-01-14 02:29:00,52.0,48.9,29.80,SSW,197,2.3,2.3,89,0.00,,,0.00,WeatherDisplay:10.37,2013-01-14 07:29:00,
2013-01-14 02:34:00,52.1,49.0,29.79,ESE,105,3.5,3.5,89,0.00,,,0.00,WeatherDisplay:10.37,2013-01-14 07:34:00,
2013-01-14 02:39:00,52.2,49.1,29.81,SW,229,3.5,3.5,89,0.00,,,0.00,WeatherDisplay:10.37,2013-01-14 07:39:00,
2013-01-14 02:44:00,52.5,49.4,29.84,West,281,5.0,5.0,89,0.00,,,0.00,WeatherDisplay:10.37,2013-01-14 07:44:00,
2013-01-14 02:49:00,52.5,49.4,29.87,NNW,347,8.1,8.1,89,0.00,,,0.00,WeatherDisplay:10.37,2013-01-14 07:49:00,
2013-01-14 02:54:00,52.7,49.5,29.86,NNW,328,3.5,3.5,89,0.00,,,0.00,WeatherDisplay:10.37,2013-01-14 07:54:00,
2013-01-14 02:59:00,51.6,47.9,29.88,West,281,6.9,6.9,87,0.00,,,0.00,WeatherDisplay:10.37,2013-01-14 07:59:00,
2013-01-14 03:04:00,50.2,47.1,29.88,West,260,9.2,9.2,89,0.00,,,0.00,WeatherDisplay:10.37,2013-01-14 08:04:00,
2013-01-14 03:09:00,49.5,46.7,29.88,WNW,287,11.5,11.5,90,0.00,,,0.00,WeatherDisplay:10.37,2013-01-14 08:09:00,
2013-01-14 03:14:00,48.8,46.0,29.90,North,9,3.5,3.6,90,0.01,RA,,0.01,WeatherDisplay:10.37,2013-01-14 08:14:00,
2013-01-14 03:19:00,48.2,45.4,29.90,East,81,9.2,9.2,90,0.01,RA,,0.01,WeatherDisplay:10.37,2013-01-14 08:19:00,
2013-01-14 03:25:00,47.7,45.2,29.91,North,357,12.7,12.7,91,0.01,,,0.01,WeatherDisplay:10.37,2013-01-14 08:25:00,
2013-01-14 03:30:00,46.9,44.4,29.91,West,270,9.0,9.0,91,0.01,,,0.01,WeatherDisplay:10.37,2013-01-14 08:30:00,
2013-01-14 03:35:00,45.7,43.2,29.93,NW,304,9.2,9.2,91,0.02,RA,,0.02,WeatherDisplay:10.37,2013-01-14 08:35:00,
2013-01-14 03:40:00,44.8,42.3,29.94,West,269,8.0,8.0,91,0.02,RA,,0.02,WeatherDisplay:10.37,2013-01-14 08:40:00,
2013-01-14 03:45:00,43.8,41.3,29.95,North,11,8.0,8.0,91,0.02,,,0.02,WeatherDisplay:10.37,2013-01-14 08:45:00,
2013-01-14 03:50:00,43.1,40.4,29.95,WNW,285,13.8,13.8,90,0.02,,,0.02,WeatherDisplay:10.37,2013-01-14 08:50:00,
2013-01-14 03:55:00,42.7,40.0,29.95,NW,313,3.5,3.5,90,0.02,,,0.02,WeatherDisplay:10.37,2013-01-14 08:55:00,
2013-01-14 04:00:00,42.5,40.1,29.96,NW,308,6.9,6.9,91,0.02,,,0.02,WeatherDisplay:10.37,2013-01-14 09:00:00,
2013-01-14 04:05:00,42.4,40.0,29.96,WNW,283,11.5,11.5,91,0.02,,,0.02,WeatherDisplay:10.37,2013-01-14 09:05:00,
2013-01-14 04:10:00,42.3,39.9,29.96,ENE,57,12.0,12.0,91,0.02,,,0.02,WeatherDisplay:10.37,2013-01-14 09:10:00,
2013-01-14 04:15:00,42.2,39.8,29.96,NNW,340,6.9,6.9,91,0.01,,,0.02,WeatherDisplay:10.37,2013-01-14 09:15:00,
2013-01-14 04:20:00,42.2,39.8,29.96,West,271,3.5,3.5,91,0.01,,,0.02,WeatherDisplay:10.37,2013-01-14 09:20:00,
2013-01-14 04:25:00,42.2,39.8,29.95,WNW,283,3.5,3.5,91,0.01,,,0.02,WeatherDisplay:10.37,2013-01-14 09:25:00,
2013-01-14 04:30:00,42.2,39.8,29.95,SW,226,0.0,0.1,91,0.00,,,0.02,WeatherDisplay:10.37,2013-01-14 09:30:00,
2013-01-14 04:35:00,42.2,39.8,29.96,NW,306,2.3,2.3,91,0.00,,,0.02,WeatherDisplay:10.37,2013-01-14 09:35:00,
2013-01-14 04:40:00,42.2,39.8,29.97,NNW,337,1.1,1.1,91,0.00,,,0.02,WeatherDisplay:10.37,2013-01-14 09:40:00,
2013-01-14 04:45:00,42.1,39.7,29.98,West,276,3.5,3.5,91,0.00,,,0.02,WeatherDisplay:10.37,2013-01-14 09:45:00,
2013-01-14 04:50:00,42.1,39.7,29.98,NW,315,0.0,0.0,91,0.00,,,0.02,WeatherDisplay:10.37,2013-01-14 09:50:00,
2013-01-14 04:55:00,42.0,39.6,29.98,West,265,0.0,0.0,91,0.00,,,0.02,WeatherDisplay:10.37,2013-01-14 09:55:00,
2013-01-14 05:00:00,42.0,39.6,29.98,West,265,0.0,0.0,91,0.00,,,0.02,WeatherDisplay:10.37,2013-01-14 10:00:00,
2013-01-14 05:05:00,42.0,39.6,29.98,WNW,284,1.1,1.1,91,0.00,,,0.02,WeatherDisplay:10.37,2013-01-14 10:05:00,
2013-01-14 05:10:00,42.0,39.6,29.98,WNW,287,1.1,1.1,91,0.00,,,0.02,WeatherDisplay:10.37,2013-01-14 10:10:00,
2013-01-14 05:15:00,42.0,39.6,29.99,North,4,3.0,3.0,91,0.00,,,0.02,WeatherDisplay:10.37,2013-01-14 10:15:00,
2013-01-14 05:20:00,42.0,39.6,29.98,NNW,348,2.3,2.3,91,0.00,,,0.02,WeatherDisplay:10.37,2013-01-14 10:20:00,
2013-01-14 05:26:00,42.3,39.9,29.99,WSW,249,1.1,1.1,91,0.00,,,0.02,WeatherDisplay:10.37,2013-01-14 10:26:00,
2013-01-14 05:31:00,42.4,40.0,29.99,West,264,3.5,3.5,91,0.00,,,0.02,WeatherDisplay:10.37,2013-01-14 10:31:00,
2013-01-14 05:36:00,42.5,40.1,30.00,North,354,4.0,4.0,91,0.00,,,0.02,WeatherDisplay:10.37,2013-01-14 10:36:00,
2013-01-14 05:41:00,42.6,40.2,30.01,West,278,3.5,3.5,91,0.00,,,0.02,WeatherDisplay:10.37,2013-01-14 10:41:00,
2013-01-14 05:46:00,42.6,40.2,30.01,WSW,241,5.0,5.0,91,0.00,,,0.02,WeatherDisplay:10.37,2013-01-14 10:46:00,
2013-01-14 05:51:00,42.7,40.0,30.01,WNW,282,3.5,3.5,90,0.00,,,0.02,WeatherDisplay:10.37,2013-01-14 10:51:00,
2013-01-14 05:56:00,42.7,39.7,30.02,West,260,5.8,5.8,89,0.00,,,0.02,WeatherDisplay:10.37,2013-01-14 10:56:00,
2013-01-14 06:01:00,42.8,39.5,30.02,NNE,33,5.8,5.8,88,0.00,CLR,,0.02,WeatherDisplay:10.37,2013-01-14 11:01:00,
2013-01-14 06:06:00,42.8,39.5,30.03,WSW,255,6.9,6.9,88,0.00,CLR,,0.02,WeatherDisplay:10.37,2013-01-14 11:06:00,
2013-01-14 06:11:00,42.8,39.5,30.03,West,281,2.3,2.3,88,0.00,CLR,,0.02,WeatherDisplay:10.37,2013-01-14 11:11:00,
2013-01-14 06:16:00,42.8,39.2,30.04,SW,228,3.5,3.5,87,0.00,CLR,,0.02,WeatherDisplay:10.37,2013-01-14 11:16:00,
2013-01-14 06:21:00,42.7,39.4,30.04,WNW,289,6.9,6.9,88,0.00,CLR,,0.02,WeatherDisplay:10.37,2013-01-14 11:21:00,
2013-01-14 06:26:00,42.7,39.1,30.05,West,274,5.8,5.8,87,0.00,CLR,,0.02,WeatherDisplay:10.37,2013-01-14 11:26:00,
2013-01-14 06:31:00,42.6,39.0,30.05,WNW,300,6.9,6.9,87,0.00,CLR,,0.02,WeatherDisplay:10.37,2013-01-14 11:31:00,
2013-01-14 06:36:00,42.6,39.3,30.06,NW,321,3.5,3.5,88,0.00,CLR,,0.02,WeatherDisplay:10.37,2013-01-14 11:36:00,
2013-01-14 06:41:00,42.5,38.9,30.07,WSW,256,3.5,3.5,87,0.00,CLR,,0.02,WeatherDisplay:10.37,2013-01-14 11:41:00,
2013-01-14 06:46:00,42.5,38.6,30.07,WNW,285,10.4,10.4,86,0.00,CLR,,0.02,WeatherDisplay:10.37,2013-01-14 11:46:00,
2013-01-14 06:51:00,42.3,38.1,30.08,SSE,165,6.9,6.9,85,0.00,CLR,,0.02,WeatherDisplay:10.37,2013-01-14 11:51:00,
2013-01-14 06:56:00,42.2,37.7,30.08,SW,219,4.6,4.6,84,0.00,CLR,,0.02,WeatherDisplay:10.37,2013-01-14 11:56:00,
2013-01-14 07:01:00,42.0,37.8,30.09,SW,235,5.8,5.8,85,0.00,CLR,,0.02,WeatherDisplay:10.37,2013-01-14 12:01:00,
2013-01-14 07:07:00,41.9,37.7,30.10,WNW,287,3.5,3.5,85,0.00,CLR,,0.02,WeatherDisplay:10.37,2013-01-14 12:07:00,
2013-01-14 07:12:00,41.8,37.6,30.10,NW,307,2.0,2.0,85,0.00,CLR,,0.02,WeatherDisplay:10.37,2013-01-14 12:12:00,
2013-01-14 07:17:00,41.7,37.5,30.10,West,275,6.0,6.0,85,0.00,CLR,,0.02,WeatherDisplay:10.37,2013-01-14 12:17:00,
2013-01-14 07:22:00,41.6,37.4,30.11,WSW,256,3.5,3.5,85,0.00,CLR,,0.02,WeatherDisplay:10.37,2013-01-14 12:22:00,
2013-01-14 07:27:00,41.5,37.3,30.11,WSW,252,4.0,5.3,85,0.00,CLR,,0.02,WeatherDisplay:10.37,2013-01-14 12:27:00,
2013-01-14 07:32:00,41.3,37.1,30.11,WNW,284,2.3,2.3,85,0.00,CLR,,0.02,WeatherDisplay:10.37,2013-01-14 12:32:00,
2013-01-14 07:37:00,41.2,37.0,30.12,West,279,3.5,3.5,85,0.00,CLR,,0.02,WeatherDisplay:10.37,2013-01-14 12:37:00,
2013-01-14 07:42:00,41.2,37.0,30.12,NE,41,3.5,3.5,85,0.00,CLR,,0.02,WeatherDisplay:10.37,2013-01-14 12:42:00,
2013-01-14 07:47:00,41.1,36.6,30.13,NE,44,2.3,2.3,84,0.00,CLR,,0.02,WeatherDisplay:10.37,2013-01-14 12:47:00,
2013-01-14 07:52:00,41.1,36.0,30.13,ENE,60,3.5,3.5,82,0.00,CLR,,0.02,WeatherDisplay:10.37,2013-01-14 12:52:00,
2013-01-14 07:57:00,41.0,35.9,30.14,WSW,240,2.3,2.3,82,0.00,CLR,,0.02,WeatherDisplay:10.37,2013-01-14 12:57:00,
2013-01-14 08:02:00,40.9,35.8,30.14,SW,218,1.1,0.0,82,0.00,CLR,,0.02,WeatherDisplay:10.37,2013-01-14 13:02:00,
2013-01-14 08:07:00,40.9,36.1,30.15,West,273,1.1,1.1,83,0.00,CLR,,0.02,WeatherDisplay:10.37,2013-01-14 13:07:00,
2013-01-14 08:12:00,40.7,35.3,30.15,WNW,288,8.1,8.1,81,0.00,CLR,,0.02,WeatherDisplay:10.37,2013-01-14 13:12:00,
2013-01-14 08:17:00,40.7,35.3,30.16,NNW,345,6.9,6.9,81,0.00,CLR,,0.02,WeatherDisplay:10.37,2013-01-14 13:17:00,
2013-01-14 08:22:00,40.6,35.5,30.16,West,281,3.5,3.5,82,0.00,CLR,,0.02,WeatherDisplay:10.37,2013-01-14 13:22:00,
2013-01-14 08:27:00,40.5,35.1,30.16,WNW,288,4.0,4.0,81,0.00,CLR,,0.02,WeatherDisplay:10.37,2013-01-14 13:27:00,
2013-01-14 08:32:00,40.4,34.7,30.17,WNW,287,3.5,3.5,80,0.00,CLR,,0.02,WeatherDisplay:10.37,2013-01-14 13:32:00,
2013-01-14 08:37:00,40.4,34.7,30.17,WSW,246,6.0,6.0,80,0.00,CLR,,0.02,WeatherDisplay:10.37,2013-01-14 13:37:00,
2013-01-14 08:42:00,40.2,34.2,30.18,WNW,295,9.2,9.2,79,0.00,CLR,,0.02,WeatherDisplay:10.37,2013-01-14 13:42:00,
2013-01-14 08:47:00,40.1,33.1,30.18,NW,314,6.9,6.9,76,0.00,CLR,,0.02,WeatherDisplay:10.37,2013-01-14 13:47:00,
2013-01-14 08:52:00,39.9,32.6,30.18,WNW,291,11.5,11.5,75,0.00,CLR,,0.02,WeatherDisplay:10.37,2013-01-14 13:52:00,
2013-01-14 08:57:00,39.8,32.2,30.19,West,271,15.0,15.0,74,0.00,CLR,,0.02,WeatherDisplay:10.37,2013-01-14 13:57:00,
2013-01-14 09:02:00,39.7,32.4,30.19,North,356,9.0,9.0,75,0.00,CLR,,0.02,WeatherDisplay:10.37,2013-01-14 14:02:00,
2013-01-14 09:07:00,39.5,31.9,30.19,WSW,252,11.0,11.0,74,0.00,CLR,,0.02,WeatherDisplay:10.37,2013-01-14 14:07:00,
2013-01-14 09:12:00,39.2,30.9,30.20,WNW,293,5.8,5.8,72,0.00,CLR,,0.02,WeatherDisplay:10.37,2013-01-14 14:12:00,
2013-01-14 09:17:00,39.1,31.2,30.20,West,274,6.9,6.9,73,0.00,CLR,,0.02,WeatherDisplay:10.37,2013-01-14 14:17:00,
2013-01-14 09:22:00,38.9,30.6,30.20,WSW,256,4.6,4.6,72,0.00,CLR,,0.02,WeatherDisplay:10.37,2013-01-14 14:22:00,
2013-01-14 09:27:00,38.8,31.6,30.20,West,280,3.5,3.5,75,0.00,CLR,,0.02,WeatherDisplay:10.37,2013-01-14 14:27:00,
2013-01-14 09:32:00,38.4,31.5,30.21,NW,312,5.8,5.8,76,0.00,CLR,,0.02,WeatherDisplay:10.37,2013-01-14 14:32:00,
2013-01-14 09:37:00,38.1,30.5,30.22,West,268,5.8,5.8,74,0.00,CLR,,0.02,WeatherDisplay:10.37,2013-01-14 14:37:00,
2013-01-14 09:42:00,37.9,30.7,30.22,WNW,294,5.8,5.8,75,0.00,CLR,,0.02,WeatherDisplay:10.37,2013-01-14 14:42:00,
2013-01-14 09:47:00,37.7,30.5,30.23,North,349,5.8,5.8,75,0.00,CLR,,0.02,WeatherDisplay:10.37,2013-01-14 14:47:00,
2013-01-14 09:52:00,37.5,30.3,30.23,NE,50,8.1,8.1,75,0.00,CLR,,0.02,WeatherDisplay:10.37,2013-01-14 14:52:00,
2013-01-14 09:57:00,37.3,30.4,30.23,SSE,160,3.5,3.5,76,0.00,CLR,,0.02,WeatherDisplay:10.37,2013-01-14 14:57:00,
2013-01-14 10:02:00,37.2,30.3,30.24,West,281,4.6,4.6,76,0.00,CLR,,0.02,WeatherDisplay:10.37,2013-01-14 15:02:00,
2013-01-14 10:07:00,37.1,30.6,30.24,NW,312,5.0,5.0,77,0.00,CLR,,0.02,WeatherDisplay:10.37,2013-01-14 15:07:00,
2013-01-14 10:12:00,36.9,30.0,30.25,WSW,254,9.2,9.2,76,0.00,CLR,,0.02,WeatherDisplay:10.37,2013-01-14 15:12:00,
2013-01-14 10:17:00,36.7,30.5,30.25,NW,325,5.8,5.8,78,0.00,CLR,,0.02,WeatherDisplay:10.37,2013-01-14 15:17:00,
2013-01-14 10:22:00,36.5,29.7,30.26,West,264,5.8,5.8,76,0.00,CLR,,0.02,WeatherDisplay:10.37,2013-01-14 15:22:00,
2013-01-14 10:27:00,36.7,30.5,30.26,West,276,2.3,2.3,78,0.00,CLR,,0.02,WeatherDisplay:10.37,2013-01-14 15:27:00,
2013-01-14 10:33:00,36.7,29.5,30.26,WNW,301,9.2,9.2,75,0.00,CLR,,0.02,WeatherDisplay:10.37,2013-01-14 15:33:00,
2013-01-14 10:38:00,36.8,29.6,30.26,West,277,3.5,3.5,75,0.00,CLR,,0.02,WeatherDisplay:10.37,2013-01-14 15:38:00,
2013-01-14 10:43:00,37.0,29.5,30.26,West,277,9.2,9.2,74,0.00,CLR,,0.02,WeatherDisplay:10.37,2013-01-14 15:43:00,
2013-01-14 10:48:00,37.1,29.6,30.26,NNW,333,3.5,3.5,74,0.00,CLR,,0.02,WeatherDisplay:10.37,2013-01-14 15:48:00,
2013-01-14 10:53:00,37.2,29.0,30.26,WNW,283,5.8,6.5,72,0.00,CLR,,0.02,WeatherDisplay:10.37,2013-01-14 15:53:00,
2013-01-14 10:58:00,37.6,29.7,30.27,NNW,341,4.6,4.6,73,0.00,CLR,,0.02,WeatherDisplay:10.37,2013-01-14 15:58:00,
2013-01-14 11:03:00,37.4,28.9,30.27,WNW,289,4.0,4.0,71,0.00,CLR,,0.02,WeatherDisplay:10.37,2013-01-14 16:03:00,
2013-01-14 11:08:00,36.9,28.7,30.28,NW,310,3.5,3.5,72,0.00,CLR,,0.02,WeatherDisplay:10.37,2013-01-14 16:08:00,
2013-01-14 11:13:00,36.5,27.6,30.28,West,263,9.2,9.2,70,0.00,CLR,,0.02,WeatherDisplay:10.37,2013-01-14 16:13:00,
2013-01-14 11:18:00,36.2,27.7,30.28,West,274,8.1,8.1,71,0.00,CLR,,0.02,WeatherDisplay:10.37,2013-01-14 16:18:00,
2013-01-14 11:23:00,36.1,27.3,30.28,West,278,5.8,5.8,70,0.00,CLR,,0.02,WeatherDisplay:10.37,2013-01-14 16:23:00,
2013-01-14 11:28:00,35.9,26.7,30.28,West,276,6.9,6.9,69,0.00,CLR,,0.02,WeatherDisplay:10.37,2013-01-14 16:28:00,
2013-01-14 11:33:00,36.0,27.2,30.28,NNW,343,10.4,10.4,70,0.00,CLR,,0.02,WeatherDisplay:10.37,2013-01-14 16:33:00,
2013-01-14 11:38:00,35.9,27.1,30.28,WNW,291,5.8,5.8,70,0.00,CLR,,0.02,WeatherDisplay:10.37,2013-01-14 16:38:00,
2013-01-14 11:43:00,35.8,27.3,30.28,North,360,3.5,3.5,71,0.00,CLR,,0.02,WeatherDisplay:10.37,2013-01-14 16:43:00,
2013-01-14 11:48:00,35.5,26.7,30.28,WNW,285,4.6,4.6,70,0.00,CLR,,0.02,WeatherDisplay:10.37,2013-01-14 16:48:00,
2013-01-14 11:53:00,35.3,26.5,30.28,NW,312,5.8,5.8,70,0.00,CLR,,0.02,WeatherDisplay:10.37,2013-01-14 16:53:00,
2013-01-14 11:58:00,35.1,25.9,30.28,NNW,336,6.9,6.9,69,0.00,CLR,,0.02,WeatherDisplay:10.37,2013-01-14 16:58:00,
2013-01-14 12:03:00,34.9,26.1,30.28,WSW,253,3.5,3.5,70,0.00,CLR,,0.02,WeatherDisplay:10.37,2013-01-14 17:03:00,
2013-01-14 12:08:00,34.8,26.0,30.28,WNW,294,6.9,6.9,70,0.00,CLR,,0.02,WeatherDisplay:10.37,2013-01-14 17:08:00,
2013-01-14 12:13:00,34.7,26.3,30.28,WNW,287,7.0,7.0,71,0.00,CLR,,0.02,WeatherDisplay:10.37,2013-01-14 17:13:00,
2013-01-14 12:18:00,34.8,26.7,30.28,WSW,242,3.5,3.5,72,0.00,CLR,,0.02,WeatherDisplay:10.37,2013-01-14 17:18:00,
2013-01-14 12:23:00,34.9,26.8,30.28,West,264,4.0,4.0,72,0.00,CLR,,0.02,WeatherDisplay:10.37,2013-01-14 17:23:00,
2013-01-14 12:28:00,34.8,27.0,30.28,West,277,5.8,5.8,73,0.00,CLR,,0.02,WeatherDisplay:10.37,2013-01-14 17:28:00,
2013-01-14 12:33:00,34.7,26.9,30.28,West,276,4.6,4.6,73,0.00,CLR,,0.02,WeatherDisplay:10.37,2013-01-14 17:33:00,
2013-01-14 12:38:00,34.5,26.7,30.28,WNW,285,5.0,5.0,73,0.00,CLR,,0.02,WeatherDisplay:10.37,2013-01-14 17:38:00,
2013-01-14 12:43:00,34.5,26.7,30.28,NW,314,6.9,6.9,73,0.00,CLR,,0.02,WeatherDisplay:10.37,2013-01-14 17:43:00,
2013-01-14 12:48:00,34.5,27.1,30.28,West,262,3.5,3.5,74,0.00,CLR,,0.02,WeatherDisplay:10.37,2013-01-14 17:48:00,
2013-01-14 12:53:00,34.5,27.1,30.28,West,267,5.0,5.0,74,0.00,CLR,,0.02,WeatherDisplay:10.37,2013-01-14 17:53:00,
2013-01-14 12:58:00,34.5,26.7,30.28,WNW,294,4.6,4.6,73,0.00,CLR,,0.02,WeatherDisplay:10.37,2013-01-14 17:58:00,
2013-01-14 13:03:00,34.4,26.6,30.28,WSW,240,2.3,2.3,73,0.00,CLR,,0.02,WeatherDisplay:10.37,2013-01-14 18:03:00,
2013-01-14 13:08:00,34.4,27.0,30.28,WNW,300,5.8,5.8,74,0.00,CLR,,0.02,WeatherDisplay:10.37,2013-01-14 18:08:00,
2013-01-14 13:13:00,34.4,27.6,30.28,NNE,23,0.0,0.2,76,0.00,CLR,,0.02,WeatherDisplay:10.37,2013-01-14 18:13:00,
2013-01-14 13:18:00,34.3,25.9,30.28,West,259,7.0,7.0,71,0.00,CLR,,0.02,WeatherDisplay:10.37,2013-01-14 18:18:00,
2013-01-14 13:23:00,34.3,25.5,30.28,WSW,249,6.0,6.0,70,0.00,CLR,,0.02,WeatherDisplay:10.37,2013-01-14 18:23:00,
2013-01-14 13:28:00,34.5,25.4,30.28,West,270,4.6,4.6,69,0.00,CLR,,0.02,WeatherDisplay:10.37,2013-01-14 18:28:00,
2013-01-14 13:33:00,34.6,25.5,30.29,NW,304,4.6,4.6,69,0.00,CLR,,0.02,WeatherDisplay:10.37,2013-01-14 18:33:00,
2013-01-14 13:38:00,34.8,25.3,30.29,WNW,288,5.8,5.8,68,0.00,CLR,,0.02,WeatherDisplay:10.37,2013-01-14 18:38:00,
2013-01-14 13:43:00,34.8,25.7,30.29,NW,305,2.3,2.3,69,0.00,CLR,,0.02,WeatherDisplay:10.37,2013-01-14 18:43:00,
2013-01-14 13:49:00,34.9,25.0,30.29,NNE,30,2.3,2.3,67,0.00,CLR,,0.02,WeatherDisplay:10.37,2013-01-14 18:49:00,
2013-01-14 13:54:00,35.2,25.7,30.29,NNW,330,3.5,0.0,68,0.00,CLR,,0.02,WeatherDisplay:10.37,2013-01-14 18:54:00,
2013-01-14 13:59:00,35.4,24.8,30.29,West,280,2.3,2.3,65,0.00,CLR,,0.02,WeatherDisplay:10.37,2013-01-14 18:59:00,
2013-01-14 14:04:00,35.3,25.1,30.30,West,278,3.5,3.5,66,0.00,CLR,,0.02,WeatherDisplay:10.37,2013-01-14 19:04:00,
2013-01-14 14:09:00,35.2,24.2,30.30,NW,321,3.5,3.5,64,0.00,CLR,,0.02,WeatherDisplay:10.37,2013-01-14 19:09:00,
2013-01-14 14:14:00,35.1,24.1,30.30,WNW,287,3.5,3.5,64,0.00,CLR,,0.02,WeatherDisplay:10.37,2013-01-14 19:14:00,
2013-01-14 14:19:00,35.1,25.2,30.30,SSW,209,1.1,1.1,67,0.00,CLR,,0.02,WeatherDisplay:10.37,2013-01-14 19:19:00,
2013-01-14 14:24:00,35.2,24.6,30.30,NNW,328,3.5,3.5,65,0.00,CLR,,0.02,WeatherDisplay:10.37,2013-01-14 19:24:00,
2013-01-14 14:29:00,35.1,25.2,30.30,WNW,283,2.0,2.0,67,0.00,CLR,,0.02,WeatherDisplay:10.37,2013-01-14 19:29:00,
2013-01-14 14:34:00,35.0,25.5,30.30,ESE,121,2.3,2.3,68,0.00,CLR,,0.02,WeatherDisplay:10.37,2013-01-14 19:34:00,
2013-01-14 14:39:00,34.9,25.0,30.30,NW,326,3.5,3.5,67,0.00,CLR,,0.02,WeatherDisplay:10.37,2013-01-14 19:39:00,
2013-01-14 14:44:00,35.0,25.9,30.31,West,267,1.1,0.0,69,0.00,CLR,,0.02,WeatherDisplay:10.37,2013-01-14 19:44:00,
2013-01-14 14:49:00,34.9,24.7,30.30,South,178,4.6,4.6,66,0.00,CLR,,0.02,WeatherDisplay:10.37,2013-01-14 19:49:00,
2013-01-14 14:54:00,34.9,25.4,30.30,WNW,294,3.5,3.5,68,0.00,CLR,,0.02,WeatherDisplay:10.37,2013-01-14 19:54:00,
2013-01-14 14:59:00,34.8,25.3,30.30,WNW,283,4.6,4.6,68,0.00,CLR,,0.02,WeatherDisplay:10.37,2013-01-14 19:59:00,
2013-01-14 15:04:00,34.8,24.6,30.30,West,273,3.5,3.5,66,0.00,CLR,,0.02,WeatherDisplay:10.37,2013-01-14 20:04:00,
2013-01-14 15:09:00,34.8,25.3,30.30,West,279,5.0,5.0,68,0.00,CLR,,0.02,WeatherDisplay:10.37,2013-01-14 20:09:00,
2013-01-14 15:14:00,34.8,25.7,30.30,WNW,288,4.6,4.6,69,0.00,CLR,,0.02,WeatherDisplay:10.37,2013-01-14 20:14:00,
2013-01-14 15:19:00,34.7,25.2,30.30,West,281,8.1,8.1,68,0.00,CLR,,0.02,WeatherDisplay:10.37,2013-01-14 20:19:00,
2013-01-14 15:24:00,34.6,25.5,30.30,SW,228,2.3,2.3,69,0.00,CLR,,0.02,WeatherDisplay:10.37,2013-01-14 20:24:00,
2013-01-14 15:29:00,34.5,24.7,30.30,SW,235,4.6,4.6,67,0.00,CLR,,0.02,WeatherDisplay:10.37,2013-01-14 20:29:00,
2013-01-14 15:34:00,34.4,24.6,30.30,NNW,328,1.1,1.1,67,0.00,CLR,,0.02,WeatherDisplay:10.37,2013-01-14 20:34:00,
2013-01-14 15:39:00,34.3,24.5,30.30,WSW,249,8.1,8.1,67,0.00,CLR,,0.02,WeatherDisplay:10.37,2013-01-14 20:39:00,
2013-01-14 15:44:00,34.2,24.4,30.30,NW,305,2.3,2.3,67,0.00,CLR,,0.02,WeatherDisplay:10.37,2013-01-14 20:44:00,
2013-01-14 15:49:00,34.2,24.4,30.30,WNW,284,4.6,4.6,67,0.00,CLR,,0.02,WeatherDisplay:10.37,2013-01-14 20:49:00,
2013-01-14 15:54:00,34.1,25.0,30.29,West,266,0.0,0.0,69,0.00,CLR,,0.02,WeatherDisplay:10.37,2013-01-14 20:54:00,
2013-01-14 15:59:00,34.1,25.3,30.29,WSW,250,3.0,3.0,70,0.00,CLR,,0.02,WeatherDisplay:10.37,2013-01-14 20:59:00,
2013-01-14 16:04:00,34.0,24.9,30.30,NNW,331,5.0,5.0,69,0.00,CLR,,0.02,WeatherDisplay:10.37,2013-01-14 21:04:00,
2013-01-14 16:09:00,33.9,25.5,30.31,WNW,284,3.5,3.5,71,0.00,CLR,,0.02,WeatherDisplay:10.37,2013-01-14 21:09:00,
2013-01-14 16:14:00,33.8,25.4,30.31,WNW,287,3.5,3.5,71,0.00,CLR,,0.02,WeatherDisplay:10.37,2013-01-14 21:14:00,
2013-01-14 16:19:00,33.7,25.6,30.31,West,281,1.1,1.1,72,0.00,CLR,,0.02,WeatherDisplay:10.37,2013-01-14 21:19:00,
2013-01-14 16:24:00,33.6,25.2,30.31,WNW,297,3.5,3.5,71,0.00,CLR,,0.02,WeatherDisplay:10.37,2013-01-14 21:24:00,
2013-01-14 16:29:00,33.4,25.3,30.32,NW,314,2.3,2.3,72,0.00,CLR,,0.02,WeatherDisplay:10.37,2013-01-14 21:29:00,
2013-01-14 16:34:00,33.3,25.2,30.32,West,264,3.5,3.5,72,0.00,CLR,,0.02,WeatherDisplay:10.37,2013-01-14 21:34:00,
2013-01-14 16:39:00,33.2,25.5,30.32,West,259,2.3,2.3,73,0.00,CLR,,0.02,WeatherDisplay:10.37,2013-01-14 21:39:00,
2013-01-14 16:44:00,33.1,26.0,30.32,West,259,7.0,7.0,75,0.00,CLR,,0.02,WeatherDisplay:10.37,2013-01-14 21:44:00,
2013-01-14 16:49:00,32.9,25.8,30.33,West,278,5.8,5.8,75,0.00,CLR,,0.02,WeatherDisplay:10.37,2013-01-14 21:49:00,
2013-01-14 16:54:00,32.7,26.0,30.33,WNW,294,5.8,5.8,76,0.00,CLR,,0.02,WeatherDisplay:10.37,2013-01-14 21:54:00,
2013-01-14 16:59:00,32.6,26.2,30.33,North,355,8.1,8.1,77,0.00,CLR,,0.02,WeatherDisplay:10.37,2013-01-14 21:59:00,
2013-01-14 17:04:00,32.5,26.1,30.34,West,281,2.0,2.0,77,0.00,CLR,,0.02,WeatherDisplay:10.37,2013-01-14 22:04:00,
2013-01-14 17:09:00,32.4,25.0,30.34,WSW,250,3.5,3.5,74,0.00,CLR,,0.02,WeatherDisplay:10.37,2013-01-14 22:09:00,
2013-01-14 17:14:00,32.3,25.3,30.34,West,274,2.0,2.0,75,0.00,CLR,,0.02,WeatherDisplay:10.37,2013-01-14 22:14:00,
2013-01-14 17:19:00,32.3,25.3,30.34,WNW,287,5.0,5.0,75,0.00,CLR,,0.02,WeatherDisplay:10.37,2013-01-14 22:19:00,
2013-01-14 17:24:00,32.2,25.2,30.33,WNW,287,2.3,2.3,75,0.00,CLR,,0.02,WeatherDisplay:10.37,2013-01-14 22:24:00,
2013-01-14 17:29:00,32.1,24.7,30.35,WNW,293,2.3,2.3,74,0.00,CLR,,0.02,WeatherDisplay:10.37,2013-01-14 22:29:00,
2013-01-14 17:34:00,32.1,24.1,30.36,West,273,3.5,3.5,72,0.00,CLR,,0.02,WeatherDisplay:10.37,2013-01-14 22:34:00,
2013-01-14 17:39:00,32.0,24.6,30.36,West,276,2.3,0.0,74,0.00,CLR,,0.02,WeatherDisplay:10.37,2013-01-14 22:39:00,
2013-01-14 17:44:00,32.0,24.3,30.37,West,270,2.3,2.3,73,0.00,CLR,,0.02,WeatherDisplay:10.37,2013-01-14 22:44:00,
2013-01-14 17:49:00,32.0,23.7,30.37,NE,53,8.1,8.1,71,0.00,CLR,,0.02,WeatherDisplay:10.37,2013-01-14 22:49:00,
2013-01-14 17:55:00,32.0,23.7,30.37,WNW,297,4.6,4.6,71,0.00,CLR,,0.02,WeatherDisplay:10.37,2013-01-14 22:55:00,
2013-01-14 18:00:00,31.9,23.6,30.37,WNW,283,2.0,2.0,71,0.00,CLR,,0.02,WeatherDisplay:10.37,2013-01-14 23:00:00,
2013-01-14 18:05:00,31.9,23.6,30.37,West,264,2.3,0.0,71,0.00,CLR,,0.02,WeatherDisplay:10.37,2013-01-14 23:05:00,
2013-01-14 18:10:00,31.9,24.2,30.36,West,273,1.1,0.0,73,0.00,CLR,,0.02,WeatherDisplay:10.37,2013-01-14 23:10:00,
2013-01-14 18:15:00,31.8,23.8,30.36,West,281,2.3,2.3,72,0.00,CLR,,0.02,WeatherDisplay:10.37,2013-01-14 23:15:00,
2013-01-14 18:20:00,31.8,23.1,30.36,WNW,300,3.5,3.5,70,0.00,CLR,,0.02,WeatherDisplay:10.37,2013-01-14 23:20:00,
2013-01-14 18:25:00,31.8,23.1,30.34,SSW,212,2.3,2.3,70,0.00,CLR,,0.02,WeatherDisplay:10.37,2013-01-14 23:25:00,
2013-01-14 18:30:00,31.7,23.7,30.35,SW,231,1.1,1.1,72,0.00,CLR,,0.02,WeatherDisplay:10.37,2013-01-14 23:30:00,
2013-01-14 18:35:00,31.7,23.0,30.34,WSW,255,1.1,1.1,70,0.00,CLR,,0.02,WeatherDisplay:10.37,2013-01-14 23:35:00,
2013-01-14 18:40:00,31.7,23.4,30.36,WNW,299,0.0,0.1,71,0.00,CLR,,0.02,WeatherDisplay:10.37,2013-01-14 23:40:00,
2013-01-14 18:45:00,31.7,23.0,30.38,West,270,2.3,2.3,70,0.00,CLR,,0.02,WeatherDisplay:10.37,2013-01-14 23:45:00,
2013-01-14 18:50:00,31.7,23.0,30.37,West,267,3.5,3.5,70,0.00,CLR,,0.02,WeatherDisplay:10.37,2013-01-14 23:50:00,
2013-01-14 18:55:00,31.7,22.7,30.37,West,278,9.2,9.2,69,0.00,CLR,,0.02,WeatherDisplay:10.37,2013-01-14 23:55:00,
2013-01-14 19:00:00,31.7,22.7,30.37,WNW,284,1.1,1.1,69,0.00,CLR,,0.02,WeatherDisplay:10.37,2013-01-15 00:00:00,
2013-01-14 19:05:00,31.7,23.0,30.38,WNW,284,1.1,0.0,70,0.00,CLR,,0.02,WeatherDisplay:10.37,2013-01-15 00:05:00,
2013-01-14 19:11:00,31.7,23.0,30.38,WNW,300,3.5,3.5,70,0.00,CLR,,0.02,WeatherDisplay:10.37,2013-01-15 00:11:00,
2013-01-14 19:16:00,31.7,23.4,30.39,West,274,4.0,4.0,71,0.00,CLR,,0.02,WeatherDisplay:10.37,2013-01-15 00:16:00,
2013-01-14 19:21:00,31.7,23.0,30.39,NW,311,1.0,1.0,70,0.00,CLR,,0.02,WeatherDisplay:10.37,2013-01-15 00:21:00,
2013-01-14 19:26:00,31.7,23.4,30.39,WSW,256,5.8,5.8,71,0.00,CLR,,0.02,WeatherDisplay:10.37,2013-01-15 00:26:00,
2013-01-14 19:31:00,31.7,23.4,30.39,NW,321,3.5,3.5,71,0.00,CLR,,0.02,WeatherDisplay:10.37,2013-01-15 00:31:00,
2013-01-14 19:36:00,31.7,23.0,30.39,WSW,257,6.9,6.9,70,0.00,CLR,,0.02,WeatherDisplay:10.37,2013-01-15 00:36:00,
2013-01-14 19:41:00,31.7,23.4,30.38,NW,312,3.5,3.5,71,0.00,CLR,,0.02,WeatherDisplay:10.37,2013-01-15 00:41:00,
2013-01-14 19:46:00,31.7,23.4,30.37,NNE,16,4.0,4.0,71,0.00,CLR,,0.02,WeatherDisplay:10.37,2013-01-15 00:46:00,
2013-01-14 19:51:00,31.6,23.3,30.36,West,277,3.5,3.5,71,0.00,CLR,,0.02,WeatherDisplay:10.37,2013-01-15 00:51:00,
2013-01-14 19:56:00,31.5,23.5,30.35,NW,308,3.5,3.5,72,0.00,CLR,,0.02,WeatherDisplay:10.37,2013-01-15 00:56:00,
2013-01-14 20:01:00,31.4,23.1,30.34,SW,233,3.5,3.5,71,0.00,,,0.02,WeatherDisplay:10.37,2013-01-15 01:01:00,
2013-01-14 20:06:00,31.4,23.4,30.35,ENE,65,3.5,3.5,72,0.00,,,0.02,WeatherDisplay:10.37,2013-01-15 01:06:00,
2013-01-14 20:11:00,31.4,23.4,30.34,West,262,1.1,1.1,72,0.00,,,0.02,WeatherDisplay:10.37,2013-01-15 01:11:00,
2013-01-14 20:16:00,31.3,23.6,30.35,WSW,250,1.1,1.1,73,0.00,,,0.02,WeatherDisplay:10.37,2013-01-15 01:16:00,
2013-01-14 20:21:00,31.3,23.6,30.35,WSW,250,0.0,0.0,73,0.00,,,0.02,WeatherDisplay:10.37,2013-01-15 01:21:00,
2013-01-14 20:26:00,31.2,23.5,30.34,NNW,338,1.1,1.1,73,0.00,,,0.02,WeatherDisplay:10.37,2013-01-15 01:26:00,
2013-01-14 20:31:00,31.2,23.9,30.34,WSW,245,2.3,2.3,74,0.00,,,0.02,WeatherDisplay:10.37,2013-01-15 01:31:00,
2013-01-14 20:36:00,31.1,23.1,30.35,SW,224,1.1,1.1,72,0.00,,,0.02,WeatherDisplay:10.37,2013-01-15 01:36:00,
2013-01-14 20:41:00,31.1,23.5,30.35,West,280,1.0,1.0,73,0.00,,,0.02,WeatherDisplay:10.37,2013-01-15 01:41:00,
2013-01-14 20:46:00,31.1,23.8,30.36,WSW,249,2.3,2.3,74,0.00,,,0.02,WeatherDisplay:10.37,2013-01-15 01:46:00,
2013-01-14 20:51:00,31.0,23.4,30.35,West,280,4.6,4.6,73,0.00,,,0.02,WeatherDisplay:10.37,2013-01-15 01:51:00,
2013-01-14 20:56:00,31.0,23.4,30.36,West,277,2.3,2.3,73,0.00,,,0.02,WeatherDisplay:10.37,2013-01-15 01:56:00,
2013-01-14 21:01:00,30.9,23.3,30.36,WSW,239,3.5,3.5,73,0.00,,,0.02,WeatherDisplay:10.37,2013-01-15 02:01:00,
2013-01-14 21:06:00,30.9,23.3,30.34,West,280,1.1,1.1,73,0.00,,,0.02,WeatherDisplay:10.37,2013-01-15 02:06:00,
2013-01-14 21:11:00,30.9,22.9,30.36,West,259,3.5,3.5,72,0.00,,,0.02,WeatherDisplay:10.37,2013-01-15 02:11:00,
2013-01-14 21:16:00,30.9,23.6,30.36,WSW,239,0.0,0.0,74,0.00,,,0.02,WeatherDisplay:10.37,2013-01-15 02:16:00,
2013-01-14 21:21:00,30.9,22.9,30.37,West,271,8.1,8.1,72,0.00,,,0.02,WeatherDisplay:10.37,2013-01-15 02:21:00,
2013-01-14 21:26:00,30.9,23.6,30.36,NNE,13,1.1,1.1,74,0.00,,,0.02,WeatherDisplay:10.37,2013-01-15 02:26:00,
2013-01-14 21:31:00,31.0,23.0,30.37,West,278,3.5,3.5,72,0.00,,,0.02,WeatherDisplay:10.37,2013-01-15 02:31:00,
2013-01-14 21:36:00,31.0,23.4,30.38,SW,235,1.1,0.0,73,0.00,,,0.02,WeatherDisplay:10.37,2013-01-15 02:36:00,
2013-01-14 21:41:00,31.0,23.0,30.38,West,271,3.5,3.5,72,0.00,,,0.02,WeatherDisplay:10.37,2013-01-15 02:41:00,
2013-01-14 21:46:00,31.0,23.4,30.38,West,276,1.1,1.1,73,0.00,,,0.02,WeatherDisplay:10.37,2013-01-15 02:46:00,
2013-01-14 21:52:00,31.0,23.0,30.39,WNW,282,1.1,1.1,72,0.00,,,0.02,WeatherDisplay:10.37,2013-01-15 02:52:00,
2013-01-14 21:57:00,31.0,22.7,30.38,WSW,243,4.6,4.6,71,0.00,,,0.02,WeatherDisplay:10.37,2013-01-15 02:57:00,
2013-01-14 22:02:00,30.9,22.6,30.37,WNW,284,1.1,1.1,71,0.00,,,0.02,WeatherDisplay:10.37,2013-01-15 03:02:00,
2013-01-14 22:07:00,30.9,22.9,30.38,West,264,3.0,3.0,72,0.00,,,0.02,WeatherDisplay:10.37,2013-01-15 03:07:00,
2013-01-14 22:12:00,30.9,22.6,30.37,WNW,291,3.5,3.5,71,0.00,,,0.02,WeatherDisplay:10.37,2013-01-15 03:12:00,
2013-01-14 22:17:00,30.9,22.9,30.37,SW,228,1.1,1.1,72,0.00,,,0.02,WeatherDisplay:10.37,2013-01-15 03:17:00,
2013-01-14 22:22:00,30.8,22.5,30.37,WNW,301,5.8,5.8,71,0.00,,,0.02,WeatherDisplay:10.37,2013-01-15 03:22:00,
2013-01-14 22:27:00,30.7,22.4,30.37,WNW,287,4.6,4.6,71,0.00,,,0.02,WeatherDisplay:10.37,2013-01-15 03:27:00,
2013-01-14 22:32:00,30.8,22.8,30.38,NNW,333,2.3,2.3,72,0.00,,,0.02,WeatherDisplay:10.37,2013-01-15 03:32:00,
2013-01-14 22:37:00,30.7,22.4,30.38,SW,233,2.0,2.0,71,0.00,,,0.02,WeatherDisplay:10.37,2013-01-15 03:37:00,
2013-01-14 22:42:00,30.7,22.7,30.38,NNW,335,6.9,6.9,72,0.00,,,0.02,WeatherDisplay:10.37,2013-01-15 03:42:00,
2013-01-14 22:47:00,30.6,22.0,30.38,West,273,2.3,2.3,70,0.00,,,0.02,WeatherDisplay:10.37,2013-01-15 03:47:00,
2013-01-14 22:52:00,30.6,22.6,30.38,North,353,2.3,2.3,72,0.00,,,0.02,WeatherDisplay:10.37,2013-01-15 03:52:00,
2013-01-14 22:57:00,30.6,22.0,30.38,West,269,1.1,1.1,70,0.00,,,0.02,WeatherDisplay:10.37,2013-01-15 03:57:00,
2013-01-14 23:02:00,30.5,21.9,30.36,East,96,1.1,0.0,70,0.00,,,0.02,WeatherDisplay:10.37,2013-01-15 04:02:00,
2013-01-14 23:07:00,30.5,21.9,30.37,WSW,242,1.1,1.1,70,0.00,,,0.02,WeatherDisplay:10.37,2013-01-15 04:07:00,
2013-01-14 23:12:00,30.4,22.1,30.36,West,260,1.1,0.0,71,0.00,,,0.02,WeatherDisplay:10.37,2013-01-15 04:12:00,
2013-01-14 23:17:00,30.4,22.1,30.36,WSW,255,1.1,1.1,71,0.00,,,0.02,WeatherDisplay:10.37,2013-01-15 04:17:00,
2013-01-14 23:22:00,30.4,22.1,30.37,NNW,328,3.5,3.5,71,0.00,,,0.02,WeatherDisplay:10.37,2013-01-15 04:22:00,
2013-01-14 23:27:00,30.4,22.1,30.35,WNW,287,1.1,1.1,71,0.00,,,0.02,WeatherDisplay:10.37,2013-01-15 04:27:00,
2013-01-14 23:32:00,30.4,22.4,30.35,West,268,1.1,1.1,72,0.00,,,0.02,WeatherDisplay:10.37,2013-01-15 04:32:00,
2013-01-14 23:37:00,30.3,22.0,30.36,NE,39,3.5,3.5,71,0.00,,,0.02,WeatherDisplay:10.37,2013-01-15 04:37:00,
2013-01-14 23:42:00,30.3,22.0,30.35,West,263,1.0,1.0,71,0.00,,,0.02,WeatherDisplay:10.37,2013-01-15 04:42:00,
2013-01-14 23:47:00,30.2,22.3,30.34,West,273,1.1,0.0,72,0.00,,,0.02,WeatherDisplay:10.37,2013-01-15 04:47:00,
2013-01-14 23:52:00,30.2,21.9,30.34,SW,225,1.1,0.0,71,0.00,,,0.02,WeatherDisplay:10.37,2013-01-15 04:52:00,
2013-01-14 23:57:00,30.2,22.3,30.34,SW,225,0.0,0.0,72,0.00,,,0.02,WeatherDisplay:10.37,2013-01-15 04:57:00,